KBFF/BFF METAR and TAF weather

Enter ICAO airport designator
Station Type Date Time Source
KBFF METAR 2018/04/20 07:53 UTC NOAA

KBFF 200753Z AUTO 12020G33KT 10SM CLR 06/M03 A3008 RMK AO2 PK WND 13037/0701 SLP171 T00561028


Station Type Date Time Source
KBFF Decoded METAR 2018/04/20 07:53 UTC NOAA

SCOTTSBLUFF HEILIG FIELD, NE, United States (KBFF) 41-52N 103-36W 1203M
Apr 20, 2018 - 03:53 AM EDT / 2018.04.20 0753 UTC
Wind: from the ESE (120 degrees) at 23 MPH (20 KT) gusting to 38 MPH (33 KT):0
Visibility: 10 mile(s):0
Sky conditions: clear
Temperature: 42.1 F (5.6 C)
Dew Point: 27.0 F (-2.8 C)
Relative Humidity: 54%
Pressure (altimeter): 30.08 in. Hg (1018 hPa)
ob: KBFF 200753Z AUTO 12020G33KT 10SM CLR 06/M03 A3008 RMK AO2 PK WND 13037/0701 SLP171 T00561028
cycle: 8

Station Type Date Time Source
KBFF TAF 2018/04/20 06:28 UTC NOAA

TAF KBFF 200526Z 2006/2106 14024G32KT P6SM BKN250
FM201400 12020G30KT 6SM -RASN BKN040
FM201600 13020G30KT 4SM -RA BKN012
FM201900 13020G30KT P6SM BKN012
FM210000 10014KT 5SM -SN OVC008


Example: see airport list